Time,TemperatureF,DewpointF,PressureIn,WindDirection,WindDirectionDegrees,WindSpeedMPH,WindSpeedGustMPH,Humidity,HourlyPrecipIn,Conditions,Clouds,dailyrainin,SoftwareType,DateUTC
2013-04-15 00:08:00,73.0,64.2,29.48,South,180,9.4,-999.0,74,-99.99,,,0.00,Acu-Link.com,2013-04-15 05:08:00,
2013-04-15 00:23:00,72.9,64.5,29.49,SSE,157,5.8,-999.0,75,-99.99,,,0.00,Acu-Link.com,2013-04-15 05:23:00,
2013-04-15 00:38:00,72.5,64.5,29.49,South,180,6.8,-999.0,76,-99.99,,,0.00,Acu-Link.com,2013-04-15 05:38:00,
2013-04-15 00:53:00,72.3,64.3,29.49,South,180,7.8,-999.0,76,-99.99,,,0.00,Acu-Link.com,2013-04-15 05:53:00,
2013-04-15 01:09:00,72.3,64.3,29.49,SSE,157,6.8,-999.0,76,-99.99,,,0.00,Acu-Link.com,2013-04-15 06:09:00,
2013-04-15 01:24:00,71.6,63.2,29.49,SSE,157,8.9,-999.0,75,-99.99,,,0.00,Acu-Link.com,2013-04-15 06:24:00,
2013-04-15 01:39:00,71.4,63.1,29.49,SSW,202,4.7,-999.0,75,-99.99,,,0.00,Acu-Link.com,2013-04-15 06:39:00,
2013-04-15 01:54:00,71.1,62.4,29.50,South,180,7.3,-999.0,74,-99.99,,,0.00,Acu-Link.com,2013-04-15 06:54:00,
2013-04-15 02:55:00,70.0,60.5,29.50,South,180,4.7,-999.0,72,-99.99,,,0.00,Acu-Link.com,2013-04-15 07:55:00,
2013-04-15 03:41:00,69.1,44.4,29.50,South,180,6.8,-999.0,41,-99.99,,,0.00,Acu-Link.com,2013-04-15 08:41:00,
2013-04-15 03:56:00,68.9,10.1,29.50,SSW,202,6.8,-999.0,10,-99.99,,,0.00,Acu-Link.com,2013-04-15 08:56:00,
2013-04-15 04:12:00,69.1,10.3,29.51,SSE,157,3.7,-999.0,10,-99.99,,,0.00,Acu-Link.com,2013-04-15 09:12:00,
2013-04-15 04:27:00,68.9,5.2,29.51,SSW,202,7.8,-999.0,8,-99.99,,,0.00,Acu-Link.com,2013-04-15 09:27:00,
2013-04-15 04:42:00,68.9,5.2,29.51,South,180,8.3,-999.0,8,-99.99,,,0.00,Acu-Link.com,2013-04-15 09:42:00,
2013-04-15 04:57:00,68.9,5.2,29.52,SSE,157,4.7,-999.0,8,-99.99,,,0.00,Acu-Link.com,2013-04-15 09:57:00,
2013-04-15 05:12:00,69.1,10.3,29.52,South,180,5.3,-999.0,10,-99.99,,,0.00,Acu-Link.com,2013-04-15 10:12:00,
2013-04-15 05:27:00,69.3,24.0,29.52,South,180,4.7,-999.0,18,-99.99,,,0.00,Acu-Link.com,2013-04-15 10:27:00,
2013-04-15 05:42:00,69.6,37.6,29.52,South,180,7.3,-999.0,31,-99.99,,,0.00,Acu-Link.com,2013-04-15 10:42:00,
2013-04-15 05:57:00,69.6,39.2,29.53,South,180,7.3,-999.0,33,-99.99,,,0.00,Acu-Link.com,2013-04-15 10:57:00,
2013-04-15 06:13:00,69.6,46.1,29.54,SSW,202,5.3,-999.0,43,-99.99,,,0.00,Acu-Link.com,2013-04-15 11:13:00,
2013-04-15 06:28:00,69.8,44.4,29.54,South,180,8.3,-999.0,40,-99.99,,,0.00,Acu-Link.com,2013-04-15 11:28:00,
2013-04-15 06:43:00,69.8,46.3,29.54,SSW,202,7.3,-999.0,43,-99.99,,,0.00,Acu-Link.com,2013-04-15 11:43:00,
2013-04-15 06:58:00,69.6,48.5,29.54,SSW,202,10.9,-999.0,47,-99.99,,,0.00,Acu-Link.com,2013-04-15 11:58:00,
2013-04-15 12:53:00,81.9,65.6,29.61,SSW,202,14.0,-999.0,58,-99.99,,,0.00,Acu-Link.com,2013-04-15 17:53:00,
2013-04-15 13:08:00,82.4,66.6,29.60,South,180,15.0,-999.0,59,-99.99,,,0.00,Acu-Link.com,2013-04-15 18:08:00,
2013-04-15 13:24:00,84.2,66.3,29.59,South,180,14.0,-999.0,55,-99.99,,,0.00,Acu-Link.com,2013-04-15 18:24:00,
2013-04-15 13:39:00,84.6,65.6,29.59,SSE,157,7.8,-999.0,53,-99.99,,,0.00,Acu-Link.com,2013-04-15 18:39:00,
2013-04-15 13:54:00,83.5,65.6,29.58,South,180,10.9,-999.0,55,-99.99,,,0.00,Acu-Link.com,2013-04-15 18:54:00,
2013-04-15 14:09:00,83.8,65.4,29.58,SSE,157,13.5,-999.0,54,-99.99,,,0.00,Acu-Link.com,2013-04-15 19:09:00,
2013-04-15 14:24:00,85.6,64.8,29.58,South,180,12.5,-999.0,50,-99.99,,,0.00,Acu-Link.com,2013-04-15 19:24:00,
2013-04-15 14:39:00,85.8,66.1,29.58,SSW,202,11.4,-999.0,52,-99.99,,,0.00,Acu-Link.com,2013-04-15 19:39:00,
2013-04-15 14:54:00,85.6,65.4,29.57,SSW,202,13.0,-999.0,51,-99.99,,,0.00,Acu-Link.com,2013-04-15 19:54:00,
2013-04-15 15:09:00,86.0,65.2,29.57,SSE,157,13.5,-999.0,50,-99.99,,,0.00,Acu-Link.com,2013-04-15 20:09:00,
2013-04-15 15:25:00,84.4,64.3,29.56,SW,225,7.8,-999.0,51,-99.99,,,0.00,Acu-Link.com,2013-04-15 20:25:00,
2013-04-15 15:40:00,85.8,65.5,29.56,South,180,11.4,-999.0,51,-99.99,,,0.00,Acu-Link.com,2013-04-15 20:40:00,
2013-04-15 15:55:00,86.4,66.1,29.55,SSE,157,16.1,-999.0,51,-99.99,,,0.00,Acu-Link.com,2013-04-15 20:55:00,
2013-04-15 16:10:00,85.3,66.2,29.54,SE,135,8.3,-999.0,53,-99.99,,,0.00,Acu-Link.com,2013-04-15 21:10:00,
2013-04-15 16:26:00,86.4,66.1,29.55,South,180,6.8,-999.0,51,-99.99,,,0.00,Acu-Link.com,2013-04-15 21:26:00,
2013-04-15 16:41:00,87.3,66.4,29.54,SSE,157,10.9,-999.0,50,-99.99,,,0.00,Acu-Link.com,2013-04-15 21:41:00,
2013-04-15 16:56:00,86.9,66.0,29.54,SSE,157,11.4,-999.0,50,-99.99,,,0.00,Acu-Link.com,2013-04-15 21:56:00,
2013-04-15 17:26:00,84.7,65.6,29.54,South,180,11.9,-999.0,53,-99.99,,,0.00,Acu-Link.com,2013-04-15 22:26:00,
2013-04-15 17:41:00,87.1,67.3,29.54,SSW,202,6.3,-999.0,52,-99.99,,,0.00,Acu-Link.com,2013-04-15 22:41:00,
2013-04-15 17:56:00,85.5,65.8,29.54,SSW,202,17.1,-999.0,52,-99.99,,,0.00,Acu-Link.com,2013-04-15 22:56:00,
2013-04-15 18:11:00,83.8,65.4,29.54,South,180,6.8,-999.0,54,-99.99,,,0.00,Acu-Link.com,2013-04-15 23:11:00,
2013-04-15 18:26:00,84.6,66.1,29.53,SSE,157,7.3,-999.0,54,-99.99,,,0.00,Acu-Link.com,2013-04-15 23:26:00,
2013-04-15 18:42:00,83.1,66.3,29.54,SSE,157,11.4,-999.0,57,-99.99,,,0.00,Acu-Link.com,2013-04-15 23:42:00,
2013-04-15 18:57:00,82.4,66.1,29.55,South,180,14.0,-999.0,58,-99.99,,,0.00,Acu-Link.com,2013-04-15 23:57:00,
2013-04-15 19:12:00,81.3,65.6,29.54,SSE,157,8.3,-999.0,59,-99.99,,,0.00,Acu-Link.com,2013-04-16 00:12:00,
2013-04-15 19:27:00,81.1,65.4,29.54,SE,135,4.7,-999.0,59,-99.99,,,0.00,Acu-Link.com,2013-04-16 00:27:00,
2013-04-15 19:42:00,80.8,65.6,29.55,ESE,112,6.3,-999.0,60,-99.99,,,0.00,Acu-Link.com,2013-04-16 00:42:00,
2013-04-15 19:57:00,79.7,65.0,29.56,ESE,112,5.3,-999.0,61,-99.99,,,0.00,Acu-Link.com,2013-04-16 00:57:00,
2013-04-15 20:13:00,78.8,65.1,29.56,SSE,157,8.3,-999.0,63,-99.99,,,0.00,Acu-Link.com,2013-04-16 01:13:00,
2013-04-15 20:28:00,77.7,65.0,29.57,SE,135,5.3,-999.0,65,-99.99,,,0.00,Acu-Link.com,2013-04-16 01:28:00,
2013-04-15 20:43:00,77.0,65.6,29.57,SSE,157,4.2,-999.0,68,-99.99,,,0.00,Acu-Link.com,2013-04-16 01:43:00,
2013-04-15 20:58:00,76.5,65.1,29.58,ESE,112,6.3,-999.0,68,-99.99,,,0.00,Acu-Link.com,2013-04-16 01:58:00,
2013-04-15 21:13:00,76.1,65.6,29.59,SSE,157,3.7,-999.0,70,-99.99,,,0.00,Acu-Link.com,2013-04-16 02:13:00,
2013-04-15 21:28:00,75.6,65.5,29.60,SSE,157,5.3,-999.0,71,-99.99,,,0.00,Acu-Link.com,2013-04-16 02:28:00,
2013-04-15 21:43:00,74.8,65.2,29.61,SE,135,6.3,-999.0,72,-99.99,,,0.00,Acu-Link.com,2013-04-16 02:43:00,
2013-04-15 21:58:00,74.5,65.3,29.61,SE,135,5.8,-999.0,73,-99.99,,,0.00,Acu-Link.com,2013-04-16 02:58:00,
2013-04-15 22:13:00,74.1,65.3,29.61,SSE,157,5.3,-999.0,74,-99.99,,,0.00,Acu-Link.com,2013-04-16 03:13:00,
2013-04-15 22:29:00,73.6,65.2,29.62,SSE,157,3.7,-999.0,75,-99.99,,,0.00,Acu-Link.com,2013-04-16 03:29:00,
2013-04-15 22:44:00,73.4,65.0,29.62,SE,135,8.3,-999.0,75,-99.99,,,0.00,Acu-Link.com,2013-04-16 03:44:00,
2013-04-15 22:59:00,73.4,65.4,29.62,SSE,157,8.9,-999.0,76,-99.99,,,0.00,Acu-Link.com,2013-04-16 03:59:00,
2013-04-15 23:14:00,73.2,65.2,29.62,SSE,157,8.9,-999.0,76,-99.99,,,0.00,Acu-Link.com,2013-04-16 04:14:00,
2013-04-15 23:29:00,72.9,65.3,29.62,South,180,10.9,-999.0,77,-99.99,,,0.00,Acu-Link.com,2013-04-16 04:29:00,
2013-04-15 23:44:00,72.7,65.1,29.62,SE,135,5.3,-999.0,77,-99.99,,,0.00,Acu-Link.com,2013-04-16 04:44:00,
2013-04-15 23:59:00,72.1,64.5,29.63,SSE,157,5.3,-999.0,77,-99.99,,,0.00,Acu-Link.com,2013-04-16 04:59:00,